createdAt,value
2022-09-16T00:01:14.931Z,17.38
2022-09-16T00:04:17.600Z,17.38
2022-09-16T00:07:20.317Z,17.41
2022-09-16T00:10:23.135Z,17.41
2022-09-16T00:13:24.848Z,17.42
2022-09-16T00:16:29.349Z,17.42
2022-09-16T00:19:31.744Z,17.44
2022-09-16T00:22:33.737Z,17.43
2022-09-16T00:25:35.518Z,17.45
2022-09-16T00:28:37.257Z,17.47
2022-09-16T00:31:39.180Z,17.47
2022-09-16T00:34:41.024Z,17.49
2022-09-16T00:37:42.876Z,17.48
2022-09-16T00:40:46.400Z,17.49
2022-09-16T00:43:58.400Z,17.49
2022-09-16T00:47:00.170Z,17.50
2022-09-16T00:50:18.991Z,17.51
2022-09-16T00:53:28.011Z,17.51
2022-09-16T00:56:34.899Z,17.53
2022-09-16T00:59:41.190Z,17.55
2022-09-16T01:02:45.683Z,17.56
2022-09-16T01:05:48.553Z,17.56
2022-09-16T01:08:50.746Z,17.56
2022-09-16T01:11:52.606Z,17.57
2022-09-16T01:14:54.484Z,17.58
2022-09-16T01:18:52.092Z,17.56
2022-09-16T01:22:32.214Z,17.54
2022-09-16T01:26:04.711Z,17.56
2022-09-16T01:29:22.063Z,17.55
2022-09-16T01:32:45.325Z,17.53
2022-09-16T01:36:00.876Z,17.53
2022-09-16T01:39:27.589Z,17.54
2022-09-16T01:42:35.297Z,17.55
2022-09-16T01:45:46.736Z,17.54
2022-09-16T01:49:02.735Z,17.53
2022-09-16T01:52:29.007Z,17.55
2022-09-16T01:55:43.062Z,17.57
2022-09-16T01:58:57.919Z,17.56
2022-09-16T02:02:04.745Z,17.54
2022-09-16T02:05:15.960Z,17.55
2022-09-16T02:08:28.643Z,17.55
2022-09-16T02:11:30.785Z,17.52
2022-09-16T02:14:39.317Z,17.53
2022-09-16T02:17:48.184Z,17.54
2022-09-16T02:20:54.644Z,17.55
2022-09-16T02:24:01.495Z,17.58
2022-09-16T02:27:07.370Z,17.56
2022-09-16T02:30:16.146Z,17.56
2022-09-16T02:33:19.621Z,17.58
2022-09-16T02:36:23.527Z,17.56
2022-09-16T02:39:30.128Z,17.57
2022-09-16T02:42:33.272Z,17.57
2022-09-16T02:46:07.060Z,17.55
2022-09-16T02:49:18.305Z,17.53
2022-09-16T02:52:34.756Z,17.54
2022-09-16T02:55:58.984Z,17.55
2022-09-16T02:59:02.249Z,17.49
2022-09-16T03:02:04.286Z,17.51
2022-09-16T03:05:06.354Z,17.52
2022-09-16T03:08:08.159Z,17.52
2022-09-16T03:11:28.035Z,17.49
2022-09-16T03:14:37.621Z,17.52
2022-09-16T03:17:42.203Z,17.51
2022-09-16T03:20:48.647Z,17.51
2022-09-16T03:24:02.039Z,17.50
2022-09-16T03:27:11.748Z,17.51
2022-09-16T03:30:14.035Z,17.51
2022-09-16T03:33:27.044Z,17.51
2022-09-16T03:36:34.853Z,17.51
2022-09-16T03:39:37.775Z,17.50
2022-09-16T03:42:44.347Z,17.53
2022-09-16T03:45:46.080Z,17.51
2022-09-16T03:48:48.065Z,17.54
2022-09-16T03:51:49.760Z,17.53
2022-09-16T03:54:51.604Z,17.56
2022-09-16T03:57:54.086Z,17.56
2022-09-16T04:00:56.356Z,17.56
2022-09-16T04:03:58.150Z,17.57
2022-09-16T04:07:00.065Z,17.59
2022-09-16T04:10:02.152Z,17.61
2022-09-16T04:13:03.987Z,17.64
2022-09-16T04:16:05.915Z,17.64
2022-09-16T04:19:07.742Z,17.65
2022-09-16T04:22:09.469Z,17.69
2022-09-16T04:25:11.312Z,17.71
2022-09-16T04:28:13.135Z,17.73
2022-09-16T04:31:15.996Z,17.76
2022-09-16T04:34:17.971Z,17.77
2022-09-16T04:37:19.865Z,17.78
2022-09-16T04:40:21.715Z,17.76
2022-09-16T04:43:23.554Z,17.78
2022-09-16T04:46:30.115Z,17.83
2022-09-16T04:49:32.033Z,17.85
2022-09-16T04:52:34.456Z,17.86
2022-09-16T04:55:37.672Z,17.87
2022-09-16T04:58:39.430Z,17.90
2022-09-16T05:01:41.919Z,17.91
2022-09-16T05:04:43.672Z,17.92
2022-09-16T05:07:45.518Z,17.96
2022-09-16T05:10:47.387Z,17.98
2022-09-16T05:13:49.579Z,17.98
2022-09-16T05:16:51.348Z,18.04
2022-09-16T05:19:53.166Z,18.07
2022-09-16T05:22:55.172Z,18.10
2022-09-16T05:26:03.644Z,18.04
2022-09-16T05:29:08.676Z,18.06
2022-09-16T05:32:10.514Z,18.07
2022-09-16T05:35:12.414Z,18.13
2022-09-16T05:38:15.609Z,18.19
2022-09-16T05:41:17.436Z,18.26
2022-09-16T05:44:19.214Z,18.36
2022-09-16T05:47:21.199Z,18.33
2022-09-16T05:50:23.047Z,18.41
2022-09-16T05:53:26.081Z,18.46
2022-09-16T05:56:30.257Z,18.48
2022-09-16T05:59:31.993Z,18.48
2022-09-16T06:02:33.815Z,18.48
2022-09-16T06:05:35.673Z,18.49
2022-09-16T06:08:37.843Z,18.46
2022-09-16T06:11:55.612Z,18.38
2022-09-16T06:15:00.596Z,18.35
2022-09-16T06:18:06.258Z,18.40
2022-09-16T06:21:11.703Z,18.47
2022-09-16T06:24:16.291Z,18.49
2022-09-16T06:27:18.091Z,18.50
2022-09-16T06:30:19.887Z,18.50
2022-09-16T06:33:21.610Z,18.50
2022-09-16T06:36:28.894Z,18.59
2022-09-16T06:39:30.678Z,18.66
2022-09-16T06:42:32.491Z,18.73
2022-09-16T06:45:38.522Z,18.84
2022-09-16T06:48:41.249Z,18.87
2022-09-16T06:51:43.582Z,18.88
2022-09-16T06:54:47.365Z,18.94
2022-09-16T06:57:49.122Z,18.99
2022-09-16T07:00:51.309Z,19.00
2022-09-16T07:03:54.317Z,19.06
2022-09-16T07:07:09.189Z,19.10
2022-09-16T07:10:12.006Z,18.99
2022-09-16T07:13:13.936Z,18.96
2022-09-16T07:16:24.817Z,18.97
2022-09-16T07:19:27.710Z,18.99
2022-09-16T07:22:32.203Z,18.96
2022-09-16T07:25:35.928Z,19.04
2022-09-16T07:28:40.880Z,19.06
2022-09-16T07:31:43.026Z,19.04
2022-09-16T07:34:44.953Z,19.07
2022-09-16T07:37:47.044Z,19.06
2022-09-16T07:40:48.922Z,19.11
2022-09-16T07:43:50.825Z,19.07
2022-09-16T07:46:53.041Z,19.14
2022-09-16T07:49:56.201Z,19.21
2022-09-16T07:52:58.271Z,19.29
2022-09-16T07:56:12.355Z,19.44
2022-09-16T07:59:18.665Z,19.63
2022-09-16T08:02:20.838Z,19.85
2022-09-16T08:05:22.839Z,20.08
2022-09-16T08:08:24.636Z,20.16
2022-09-16T08:11:28.313Z,20.33
2022-09-16T08:14:30.161Z,20.37
2022-09-16T08:17:33.491Z,20.40
2022-09-16T08:20:37.492Z,20.46
2022-09-16T08:23:40.399Z,20.49
2022-09-16T08:26:42.569Z,20.58
2022-09-16T08:29:44.396Z,20.91
2022-09-16T08:32:46.610Z,21.05
2022-09-16T08:36:04.266Z,21.31
2022-09-16T08:39:06.163Z,21.28
2022-09-16T08:42:35.886Z,21.14
2022-09-16T08:45:56.946Z,21.15
2022-09-16T08:49:20.520Z,21.09
2022-09-16T08:52:32.740Z,21.13
2022-09-16T08:55:41.187Z,21.34
2022-09-16T08:58:48.276Z,21.53
2022-09-16T09:01:58.529Z,21.54
2022-09-16T09:05:02.159Z,21.52
2022-09-16T09:08:18.385Z,21.42
2022-09-16T09:11:38.969Z,21.27
2022-09-16T09:15:01.241Z,21.14
2022-09-16T09:18:19.943Z,21.10
2022-09-16T09:21:31.363Z,21.01
2022-09-16T09:24:36.179Z,20.90
2022-09-16T09:27:40.985Z,20.72
2022-09-16T09:31:11.075Z,20.68
2022-09-16T09:34:39.640Z,20.60
2022-09-16T09:37:53.052Z,20.53
2022-09-16T09:41:01.034Z,20.57
2022-09-16T09:44:44.010Z,20.56
2022-09-16T09:47:55.723Z,20.37
2022-09-16T09:51:02.007Z,20.46
2022-09-16T09:54:16.977Z,20.51
2022-09-16T09:57:47.837Z,20.63
2022-09-16T10:00:51.550Z,20.63
2022-09-16T10:03:56.132Z,20.53
2022-09-16T10:06:58.825Z,20.57
2022-09-16T10:10:16.892Z,20.54
2022-09-16T10:13:21.456Z,20.51
2022-09-16T10:16:30.985Z,20.47
2022-09-16T10:19:40.704Z,20.46
2022-09-16T10:22:57.578Z,20.32
2022-09-16T10:26:16.643Z,20.34
2022-09-16T10:29:22.579Z,20.35
2022-09-16T10:32:24.609Z,20.24
2022-09-16T10:35:29.366Z,20.24
2022-09-16T10:38:40.630Z,20.31
2022-09-16T10:41:47.879Z,20.19
2022-09-16T10:44:53.309Z,20.13
2022-09-16T10:48:04.830Z,20.03
2022-09-16T10:51:22.949Z,20.00
2022-09-16T10:54:28.680Z,19.93
2022-09-16T10:57:33.428Z,19.96
2022-09-16T11:00:50.487Z,19.97
2022-09-16T11:04:25.757Z,19.91
2022-09-16T11:07:39.984Z,19.85
2022-09-16T11:11:04.902Z,19.77
2022-09-16T11:14:41.750Z,19.73
2022-09-16T11:17:58.391Z,19.47
2022-09-16T11:21:28.133Z,19.41
2022-09-16T11:24:56.674Z,19.28
2022-09-16T11:28:08.827Z,18.86
2022-09-16T11:31:27.996Z,18.94
2022-09-16T11:34:57.154Z,19.03
2022-09-16T11:38:04.763Z,19.00
2022-09-16T11:41:42.680Z,18.79
2022-09-16T11:45:19.760Z,18.85
2022-09-16T11:48:41.473Z,18.73
2022-09-16T11:52:10.161Z,18.79
2022-09-16T11:55:42.982Z,18.86
2022-09-16T11:58:49.299Z,18.70
2022-09-16T12:01:58.140Z,18.58
2022-09-16T12:05:14.326Z,18.67
2022-09-16T12:08:46.882Z,18.66
2022-09-16T12:11:54.792Z,18.40
2022-09-16T12:15:28.386Z,18.47
2022-09-16T12:18:43.127Z,18.67
2022-09-16T12:21:57.885Z,18.81
2022-09-16T12:25:06.101Z,18.89
2022-09-16T12:28:16.457Z,18.62
2022-09-16T12:31:31.350Z,18.76
2022-09-16T12:34:51.188Z,18.92
2022-09-16T12:37:54.376Z,18.93
2022-09-16T12:41:13.527Z,19.04
2022-09-16T12:44:33.892Z,19.03
2022-09-16T12:47:36.642Z,19.08
2022-09-16T12:51:02.689Z,19.10
2022-09-16T12:55:03.955Z,18.95
2022-09-16T12:58:37.768Z,18.90
2022-09-16T13:01:46.540Z,18.94
2022-09-16T13:04:53.263Z,18.89
2022-09-16T13:07:57.983Z,18.92
2022-09-16T13:11:41.217Z,19.05
2022-09-16T13:14:33.550Z,19.00
2022-09-16T13:17:40.991Z,19.05
2022-09-16T13:20:59.622Z,19.13
2022-09-16T13:24:29.804Z,19.16
2022-09-16T13:27:34.795Z,19.28
2022-09-16T13:30:39.944Z,19.26
2022-09-16T13:33:44.040Z,19.22
2022-09-16T13:36:46.048Z,19.15
2022-09-16T13:39:50.297Z,19.23
2022-09-16T13:43:09.311Z,19.31
2022-09-16T13:46:18.594Z,19.00
2022-09-16T13:49:25.998Z,18.97
2022-09-16T13:52:31.289Z,19.09
2022-09-16T13:55:33.476Z,19.01
2022-09-16T13:58:38.999Z,19.18
2022-09-16T14:02:14.783Z,19.28
2022-09-16T14:05:32.171Z,19.31
2022-09-16T14:08:47.789Z,19.49
2022-09-16T14:12:33.435Z,19.57
2022-09-16T14:15:40.616Z,19.60
2022-09-16T14:18:49.288Z,19.62
2022-09-16T14:22:18.392Z,19.55
2022-09-16T14:25:36.242Z,19.44
2022-09-16T14:28:39.401Z,19.26
2022-09-16T14:31:45.300Z,19.12
2022-09-16T14:34:52.719Z,18.98
2022-09-16T14:37:59.310Z,18.97
2022-09-16T14:41:01.550Z,18.98
2022-09-16T14:44:21.113Z,19.19
2022-09-16T14:47:50.743Z,19.53
2022-09-16T14:50:53.914Z,19.65
2022-09-16T14:54:11.811Z,19.76
2022-09-16T14:57:25.778Z,19.66
2022-09-16T15:00:44.265Z,19.51
2022-09-16T15:04:06.657Z,19.49
2022-09-16T15:07:18.619Z,19.45
2022-09-16T15:10:23.912Z,19.35
2022-09-16T15:13:35.553Z,19.30
2022-09-16T15:16:52.236Z,19.23
2022-09-16T15:20:02.272Z,19.19
2022-09-16T15:23:10.877Z,19.11
2022-09-16T15:26:19.702Z,19.05
2022-09-16T15:29:24.816Z,18.95
2022-09-16T15:32:31.941Z,18.90
2022-09-16T15:35:36.744Z,18.82
2022-09-16T15:38:44.542Z,18.75
2022-09-16T15:41:46.773Z,18.70
2022-09-16T15:44:58.373Z,18.63
2022-09-16T15:48:16.510Z,18.53
2022-09-16T15:51:40.821Z,18.52
2022-09-16T15:54:46.403Z,18.50
2022-09-16T15:57:48.224Z,18.49
2022-09-16T16:01:08.688Z,18.47
2022-09-16T16:04:13.507Z,18.45
2022-09-16T16:07:40.767Z,18.43
2022-09-16T16:11:06.096Z,18.43
2022-09-16T16:14:10.086Z,18.36
2022-09-16T16:17:32.140Z,18.31
2022-09-16T16:20:41.015Z,18.26
2022-09-16T16:23:44.011Z,18.26
2022-09-16T16:26:45.810Z,18.24
2022-09-16T16:29:47.639Z,18.19
2022-09-16T16:32:49.431Z,18.11
2022-09-16T16:35:51.259Z,18.06
2022-09-16T16:38:53.339Z,18.00
2022-09-16T16:41:55.659Z,17.93
2022-09-16T16:44:57.633Z,17.87
2022-09-16T16:48:00.812Z,17.82
2022-09-16T16:51:05.578Z,17.82
2022-09-16T16:54:09.270Z,17.76
2022-09-16T16:57:11.779Z,17.73
2022-09-16T17:00:14.629Z,17.68
2022-09-16T17:03:19.284Z,17.61
2022-09-16T17:06:22.501Z,17.56
2022-09-16T17:09:25.216Z,17.48
2022-09-16T17:12:27.778Z,17.41
2022-09-16T17:15:30.810Z,17.32
2022-09-16T17:18:37.014Z,17.27
2022-09-16T17:21:40.220Z,17.27
2022-09-16T17:24:46.126Z,17.23
2022-09-16T17:27:48.285Z,17.19
2022-09-16T17:30:52.847Z,17.13
2022-09-16T17:33:56.490Z,17.09
2022-09-16T17:40:20.603Z,16.88
2022-09-16T17:43:35.359Z,16.81
2022-09-16T17:46:39.972Z,16.79
2022-09-16T17:49:47.414Z,16.79
2022-09-16T17:52:51.927Z,16.77
2022-09-16T17:56:02.689Z,16.75
2022-09-16T17:59:09.336Z,16.72
2022-09-16T18:02:12.588Z,16.69
2022-09-16T18:05:16.304Z,16.65
2022-09-16T18:08:19.404Z,16.60
2022-09-16T18:11:27.366Z,16.61
2022-09-16T18:14:30.986Z,16.56
2022-09-16T18:17:35.781Z,16.48
2022-09-16T18:20:41.279Z,16.39
2022-09-16T18:23:44.142Z,16.31
2022-09-16T18:26:52.015Z,16.25
2022-09-16T18:29:56.461Z,16.20
2022-09-16T18:33:00.146Z,16.22
2022-09-16T18:36:07.283Z,16.21
2022-09-16T18:39:14.841Z,16.23
2022-09-16T18:42:19.456Z,16.22
2022-09-16T18:45:21.904Z,16.23
2022-09-16T18:48:25.193Z,16.25
2022-09-16T18:51:28.466Z,16.22
2022-09-16T18:54:30.678Z,16.23
2022-09-16T18:57:36.376Z,16.22
2022-09-16T19:00:38.639Z,16.20
2022-09-16T19:03:42.969Z,16.20
2022-09-16T19:06:48.506Z,16.19
2022-09-16T19:09:51.010Z,16.15
2022-09-16T19:13:00.337Z,16.06
2022-09-16T19:16:02.673Z,16.05
2022-09-16T19:19:05.711Z,16.00
2022-09-16T19:22:08.105Z,16.00
2022-09-16T19:25:09.882Z,15.94
2022-09-16T19:28:14.049Z,15.93
2022-09-16T19:31:15.897Z,15.93
2022-09-16T19:34:25.006Z,15.91
2022-09-16T19:37:27.120Z,15.86
2022-09-16T19:40:30.639Z,15.82
2022-09-16T19:43:33.041Z,15.82
2022-09-16T19:46:38.845Z,15.80
2022-09-16T19:49:41.827Z,15.76
2022-09-16T19:52:43.605Z,15.77
2022-09-16T19:55:46.903Z,15.76
2022-09-16T19:58:49.726Z,15.73
2022-09-16T20:01:52.195Z,15.71
2022-09-16T20:04:54.383Z,15.70
2022-09-16T20:07:57.275Z,15.65
2022-09-16T20:11:04.044Z,15.63
2022-09-16T20:14:11.525Z,15.62
2022-09-16T20:17:14.497Z,15.63
2022-09-16T20:20:16.308Z,15.59
2022-09-16T20:23:18.564Z,15.57
2022-09-16T20:26:21.297Z,15.55
2022-09-16T20:29:23.719Z,15.53
2022-09-16T20:32:25.897Z,15.51
2022-09-16T20:35:27.766Z,15.50
2022-09-16T20:38:29.616Z,15.46
2022-09-16T20:41:33.733Z,15.48
2022-09-16T20:44:35.978Z,15.46
2022-09-16T20:47:37.740Z,15.47
2022-09-16T20:50:40.155Z,15.43
2022-09-16T20:53:42.935Z,15.44
2022-09-16T20:56:47.902Z,15.44
2022-09-16T20:59:49.807Z,15.43
2022-09-16T21:02:56.169Z,15.41
2022-09-16T21:06:06.623Z,15.40
2022-09-16T21:09:11.551Z,15.37
2022-09-16T21:12:14.487Z,15.38
2022-09-16T21:15:16.345Z,15.36
2022-09-16T21:18:18.106Z,15.37
2022-09-16T21:21:20.225Z,15.38
2022-09-16T21:24:22.289Z,15.41
2022-09-16T21:27:24.077Z,15.42
2022-09-16T21:30:26.228Z,15.45
2022-09-16T21:33:29.616Z,15.47
2022-09-16T21:36:31.549Z,15.46
2022-09-16T21:39:33.375Z,15.47
2022-09-16T21:42:35.588Z,15.46
2022-09-16T21:45:44.164Z,15.48
2022-09-16T21:48:47.473Z,15.50
2022-09-16T21:51:49.335Z,15.49
2022-09-16T21:54:51.103Z,15.48
2022-09-16T21:57:52.908Z,15.47
2022-09-16T22:01:10.332Z,15.50
2022-09-16T22:04:18.498Z,15.52
2022-09-16T22:07:20.556Z,15.51
2022-09-16T22:10:22.489Z,15.51
2022-09-16T22:13:24.365Z,15.46
2022-09-16T22:16:29.614Z,15.49
2022-09-16T22:19:31.482Z,15.50
2022-09-16T22:22:33.971Z,15.52
2022-09-16T22:25:36.522Z,15.57
2022-09-16T22:28:39.499Z,15.62
2022-09-16T22:31:42.043Z,15.63
2022-09-16T22:34:43.846Z,15.64
2022-09-16T22:37:48.727Z,15.67
2022-09-16T22:40:50.597Z,15.70
2022-09-16T22:43:54.080Z,15.72
2022-09-16T22:46:55.839Z,15.74
2022-09-16T22:49:57.716Z,15.76
2022-09-16T22:52:59.599Z,15.73
2022-09-16T22:56:07.339Z,15.74
2022-09-16T22:59:15.905Z,15.73
2022-09-16T23:02:17.634Z,15.76
2022-09-16T23:05:19.404Z,15.77
2022-09-16T23:08:21.285Z,15.78
2022-09-16T23:11:25.810Z,15.78
2022-09-16T23:14:27.581Z,15.78
2022-09-16T23:17:29.308Z,15.78
2022-09-16T23:20:31.979Z,15.79
2022-09-16T23:23:37.899Z,15.76
2022-09-16T23:26:40.778Z,15.82
2022-09-16T23:29:42.674Z,15.81
2022-09-16T23:32:45.165Z,15.84
2022-09-16T23:35:50.937Z,15.85
2022-09-16T23:38:53.886Z,15.86
2022-09-16T23:41:56.461Z,15.87
2022-09-16T23:44:58.454Z,15.87
2022-09-16T23:48:00.950Z,15.85
2022-09-16T23:51:04.241Z,15.83
2022-09-16T23:54:06.110Z,15.81
2022-09-16T23:57:07.914Z,15.80
